createdAt,value
2023-04-15T00:00:33.499Z,0.00
2023-04-15T00:01:33.437Z,0.00
2023-04-15T00:02:33.519Z,0.00
2023-04-15T00:03:33.691Z,0.00
2023-04-15T00:04:33.535Z,0.00
2023-04-15T00:05:33.372Z,0.00
2023-04-15T00:06:33.359Z,0.00
2023-04-15T00:07:33.348Z,0.00
2023-04-15T00:08:33.319Z,0.00
2023-04-15T00:09:33.368Z,0.00
2023-04-15T00:10:33.384Z,0.00
2023-04-15T00:11:33.304Z,0.00
2023-04-15T00:12:33.308Z,0.00
2023-04-15T00:13:33.273Z,0.00
2023-04-15T00:14:33.305Z,0.00
2023-04-15T00:15:33.249Z,0.00
2023-04-15T00:16:33.272Z,0.00
2023-04-15T00:17:33.277Z,0.00
2023-04-15T00:18:33.350Z,0.00
2023-04-15T00:19:33.192Z,0.00
2023-04-15T00:20:33.230Z,0.00
2023-04-15T00:21:33.186Z,0.00
2023-04-15T00:22:33.204Z,0.00
2023-04-15T00:23:33.172Z,0.00
2023-04-15T00:24:33.196Z,0.00
2023-04-15T00:25:33.213Z,0.00
2023-04-15T00:26:33.106Z,0.00
2023-04-15T00:27:33.084Z,0.00
2023-04-15T00:28:33.069Z,0.00
2023-04-15T00:29:33.094Z,0.00
2023-04-15T00:30:33.148Z,0.00
2023-04-15T00:31:33.022Z,0.00
2023-04-15T00:32:33.072Z,0.00
2023-04-15T00:33:33.013Z,0.00
2023-04-15T00:34:33.018Z,0.00
2023-04-15T00:35:33.011Z,0.00
2023-04-15T00:36:33.008Z,0.00
2023-04-15T00:37:32.994Z,0.00
2023-04-15T00:38:33.018Z,0.00
2023-04-15T00:39:32.930Z,0.00
2023-04-15T00:40:32.928Z,0.00
2023-04-15T00:41:32.935Z,0.00
2023-04-15T00:42:32.912Z,0.00
2023-04-15T00:43:32.912Z,0.00
2023-04-15T00:44:32.929Z,0.00
2023-04-15T00:45:32.894Z,0.00
2023-04-15T00:46:32.864Z,0.00
2023-04-15T00:47:32.922Z,0.00
2023-04-15T00:48:32.855Z,0.00
2023-04-15T00:49:32.852Z,0.00
2023-04-15T00:50:32.848Z,0.00
2023-04-15T00:51:32.825Z,0.00
2023-04-15T00:52:32.795Z,0.00
2023-04-15T00:53:32.773Z,0.00
2023-04-15T00:54:32.782Z,0.00
2023-04-15T00:55:32.748Z,0.00
2023-04-15T00:56:32.769Z,0.00
2023-04-15T00:57:32.722Z,0.00
2023-04-15T00:58:32.777Z,0.00
2023-04-15T00:59:32.699Z,0.00
2023-04-15T01:00:32.696Z,0.00
2023-04-15T01:01:32.744Z,0.00
2023-04-15T01:02:32.960Z,0.00
2023-04-15T01:03:32.761Z,0.00
2023-04-15T01:04:32.846Z,0.00
2023-04-15T01:05:32.648Z,0.00
2023-04-15T01:06:32.642Z,0.00
2023-04-15T01:07:32.604Z,0.00
2023-04-15T01:08:32.602Z,0.00
2023-04-15T01:09:32.579Z,0.00
2023-04-15T01:10:32.614Z,0.00
2023-04-15T01:11:32.556Z,0.00
2023-04-15T01:12:32.545Z,0.00
2023-04-15T01:13:32.550Z,0.00
2023-04-15T01:14:32.509Z,0.00
2023-04-15T01:15:32.505Z,0.00
2023-04-15T01:16:32.594Z,0.00
2023-04-15T01:17:32.538Z,0.00
2023-04-15T01:18:32.480Z,0.00
2023-04-15T01:19:32.448Z,0.00
2023-04-15T01:20:32.447Z,0.00
2023-04-15T01:21:32.456Z,0.00
2023-04-15T01:22:32.457Z,0.00
2023-04-15T01:23:32.392Z,0.00
2023-04-15T01:24:32.404Z,0.00
2023-04-15T01:25:32.387Z,0.00
2023-04-15T01:26:32.429Z,0.00
2023-04-15T01:27:32.389Z,0.00
2023-04-15T01:28:32.358Z,0.00
2023-04-15T01:29:32.335Z,0.00
2023-04-15T01:30:32.366Z,0.00
2023-04-15T01:31:32.481Z,0.00
2023-04-15T01:32:32.330Z,0.00
2023-04-15T01:33:32.302Z,0.00
2023-04-15T01:34:35.025Z,0.00
2023-04-15T01:35:32.359Z,0.00
2023-04-15T01:36:32.248Z,0.00
2023-04-15T01:37:32.253Z,0.00
2023-04-15T01:38:32.241Z,0.00
2023-04-15T01:39:32.211Z,0.00
2023-04-15T01:40:32.297Z,0.00
2023-04-15T01:41:32.216Z,0.00
2023-04-15T01:42:32.220Z,0.00
2023-04-15T01:43:32.174Z,0.00
2023-04-15T01:44:32.155Z,0.00
2023-04-15T01:45:32.201Z,0.00
2023-04-15T01:46:32.182Z,0.00
2023-04-15T01:47:32.179Z,0.00
2023-04-15T01:48:32.089Z,0.00
2023-04-15T01:49:32.108Z,0.00
2023-04-15T01:50:32.098Z,0.00
2023-04-15T01:51:32.074Z,0.00
2023-04-15T01:52:32.075Z,0.00
2023-04-15T01:53:32.104Z,0.00
2023-04-15T01:54:32.046Z,0.00
2023-04-15T01:55:32.016Z,0.00
2023-04-15T01:56:32.020Z,0.00
2023-04-15T01:57:31.997Z,0.00
2023-04-15T01:58:31.999Z,0.00
2023-04-15T01:59:32.187Z,0.00
2023-04-15T02:00:31.986Z,0.00
2023-04-15T02:01:32.029Z,0.00
2023-04-15T02:02:32.034Z,0.00
2023-04-15T02:03:32.012Z,0.00
2023-04-15T02:04:31.985Z,0.00
2023-04-15T02:05:31.880Z,0.00
2023-04-15T02:06:31.879Z,0.00
2023-04-15T02:07:31.856Z,0.00
2023-04-15T02:08:31.910Z,0.00
2023-04-15T02:09:31.878Z,0.00
2023-04-15T02:10:31.888Z,0.00
2023-04-15T02:11:31.840Z,0.00
2023-04-15T02:12:31.837Z,0.00
2023-04-15T02:13:31.836Z,0.00
2023-04-15T02:14:31.772Z,0.00
2023-04-15T02:15:31.771Z,0.00
2023-04-15T02:16:31.850Z,0.00
2023-04-15T02:17:31.762Z,0.00
2023-04-15T02:18:31.726Z,0.00
2023-04-15T02:19:31.718Z,0.00
2023-04-15T02:20:31.723Z,0.00
2023-04-15T02:21:31.700Z,0.00
2023-04-15T02:22:31.687Z,0.00
2023-04-15T02:23:31.696Z,0.00
2023-04-15T02:24:31.742Z,0.00
2023-04-15T02:25:31.667Z,0.00
2023-04-15T02:26:31.658Z,0.00
2023-04-15T02:27:31.620Z,0.00
2023-04-15T02:28:31.603Z,0.00
2023-04-15T02:29:31.582Z,0.00
2023-04-15T02:30:31.610Z,0.00
2023-04-15T02:31:31.573Z,0.00
2023-04-15T02:32:31.591Z,0.00
2023-04-15T02:33:31.572Z,0.00
2023-04-15T02:34:31.575Z,0.00
2023-04-15T02:35:31.543Z,0.00
2023-04-15T02:36:31.635Z,0.00
2023-04-15T02:37:31.510Z,0.00
2023-04-15T02:38:31.543Z,0.00
2023-04-15T02:39:31.485Z,0.00
2023-04-15T02:40:31.450Z,0.00
2023-04-15T02:41:31.423Z,0.00
2023-04-15T02:42:31.428Z,0.00
2023-04-15T02:43:31.447Z,0.00
2023-04-15T02:44:31.424Z,0.00
2023-04-15T02:45:31.390Z,0.00
2023-04-15T02:46:31.448Z,0.00
2023-04-15T02:47:31.400Z,0.00
2023-04-15T02:48:31.330Z,0.00
2023-04-15T02:49:31.333Z,0.00
2023-04-15T02:50:31.381Z,0.00
2023-04-15T02:51:31.330Z,0.00
2023-04-15T02:52:31.299Z,0.00
2023-04-15T02:53:31.284Z,0.00
2023-04-15T02:54:31.315Z,0.00
2023-04-15T02:55:31.251Z,0.00
2023-04-15T02:56:31.267Z,0.00
2023-04-15T02:57:31.207Z,0.00
2023-04-15T02:58:31.242Z,0.00
2023-04-15T02:59:31.201Z,0.00
2023-04-15T03:00:31.179Z,0.00
2023-04-15T03:01:31.196Z,0.00
2023-04-15T03:02:31.329Z,0.00
2023-04-15T03:03:31.235Z,0.00
2023-04-15T03:04:31.157Z,0.00
2023-04-15T03:05:31.115Z,0.00
2023-04-15T03:06:31.118Z,0.00
2023-04-15T03:07:31.156Z,0.00
2023-04-15T03:08:31.076Z,0.00
2023-04-15T03:09:31.133Z,0.00
2023-04-15T03:10:31.063Z,0.00
2023-04-15T03:11:31.044Z,0.00
2023-04-15T03:12:31.092Z,0.00
2023-04-15T03:13:31.024Z,0.00
2023-04-15T03:14:31.046Z,0.00
2023-04-15T03:15:31.034Z,0.00
2023-04-15T03:16:31.069Z,0.00
2023-04-15T03:17:30.993Z,0.00
2023-04-15T03:18:30.941Z,0.00
2023-04-15T03:19:30.947Z,0.00
2023-04-15T03:20:30.972Z,0.00
2023-04-15T03:21:30.971Z,0.00
2023-04-15T03:22:30.903Z,0.00
2023-04-15T03:23:30.872Z,0.00
2023-04-15T03:24:30.923Z,0.00
2023-04-15T03:25:30.848Z,0.00
2023-04-15T03:26:30.879Z,0.00
2023-04-15T03:27:30.812Z,0.00
2023-04-15T03:28:30.838Z,0.00
2023-04-15T03:29:30.806Z,0.00
2023-04-15T03:30:30.786Z,0.00
2023-04-15T03:31:30.824Z,0.00
2023-04-15T03:32:30.809Z,0.00
2023-04-15T03:33:30.798Z,0.00
2023-04-15T03:34:30.736Z,0.00
2023-04-15T03:35:30.724Z,0.00
2023-04-15T03:36:30.769Z,0.00
2023-04-15T03:37:30.708Z,0.00
2023-04-15T03:38:30.708Z,0.00
2023-04-15T03:39:30.671Z,0.00
2023-04-15T03:40:30.688Z,0.00
2023-04-15T03:41:30.691Z,0.00
2023-04-15T03:42:30.712Z,0.00
2023-04-15T03:43:30.628Z,0.00
2023-04-15T03:44:30.650Z,0.00
2023-04-15T03:45:30.666Z,0.00
2023-04-15T03:46:30.669Z,0.00
2023-04-15T03:47:30.679Z,0.00
2023-04-15T03:48:30.622Z,0.00
2023-04-15T03:49:30.551Z,0.00
2023-04-15T03:50:30.551Z,0.00
2023-04-15T03:51:30.515Z,0.00
2023-04-15T03:52:30.561Z,0.00
2023-04-15T03:53:30.545Z,0.00
2023-04-15T03:54:30.512Z,0.00
2023-04-15T03:55:30.527Z,0.00
2023-04-15T03:56:30.466Z,0.00
2023-04-15T03:57:30.474Z,0.00
2023-04-15T03:58:30.432Z,0.00
2023-04-15T03:59:30.616Z,0.00
2023-04-15T04:00:30.430Z,0.00
2023-04-15T04:01:30.426Z,0.00
2023-04-15T04:02:30.516Z,0.00
2023-04-15T04:03:30.515Z,0.00
2023-04-15T04:04:30.533Z,0.00
2023-04-15T04:05:30.329Z,0.00
2023-04-15T04:06:30.355Z,0.00
2023-04-15T04:07:30.335Z,0.00
2023-04-15T04:08:30.334Z,0.00
2023-04-15T04:09:30.306Z,0.00
2023-04-15T04:10:30.295Z,0.00
2023-04-15T04:11:30.293Z,0.00
2023-04-15T04:12:30.269Z,0.00
2023-04-15T04:13:30.244Z,0.00
2023-04-15T04:14:30.221Z,0.00
2023-04-15T04:15:30.284Z,0.00
2023-04-15T04:16:30.248Z,0.00
2023-04-15T04:17:30.328Z,0.00
2023-04-15T04:18:30.162Z,0.00
2023-04-15T04:19:30.214Z,0.00
2023-04-15T04:20:30.170Z,0.00
2023-04-15T04:21:30.183Z,0.00
2023-04-15T04:22:30.129Z,0.00
2023-04-15T04:23:38.943Z,0.00
2023-04-15T04:24:37.706Z,0.00
2023-04-15T04:25:30.120Z,0.00
2023-04-15T04:26:30.253Z,0.00
2023-04-15T04:27:30.124Z,0.00
2023-04-15T04:28:30.077Z,0.00
2023-04-15T04:29:30.054Z,0.00
2023-04-15T04:30:30.040Z,0.00
2023-04-15T04:31:30.112Z,0.00
2023-04-15T04:32:30.184Z,0.00
2023-04-15T04:33:30.120Z,0.00
2023-04-15T04:34:30.086Z,0.00
2023-04-15T04:35:30.004Z,0.00
2023-04-15T04:36:29.975Z,0.00
2023-04-15T04:37:29.970Z,5.62
2023-04-15T04:38:29.996Z,5.62
2023-04-15T04:39:29.945Z,5.62
2023-04-15T04:40:29.896Z,5.62
2023-04-15T04:41:30.067Z,5.62
2023-04-15T04:42:30.009Z,5.62
2023-04-15T04:43:29.834Z,5.62
2023-04-15T04:44:29.840Z,5.62
2023-04-15T04:45:29.950Z,5.62
2023-04-15T04:46:29.790Z,11.25
2023-04-15T04:47:29.879Z,11.25
2023-04-15T04:48:29.794Z,11.25
2023-04-15T04:49:29.811Z,11.25
2023-04-15T04:50:29.844Z,11.25
2023-04-15T04:51:29.797Z,11.25
2023-04-15T04:52:29.781Z,11.25
2023-04-15T04:53:29.738Z,11.25
2023-04-15T04:54:29.699Z,16.88
2023-04-15T04:55:29.776Z,16.88
2023-04-15T04:56:29.738Z,16.88
2023-04-15T04:57:29.657Z,16.88
2023-04-15T04:58:29.770Z,16.88
2023-04-15T04:59:29.681Z,16.88
2023-04-15T05:00:29.644Z,16.88
2023-04-15T05:01:29.675Z,22.50
2023-04-15T05:02:29.990Z,22.50
2023-04-15T05:03:29.724Z,22.50
2023-04-15T05:04:29.704Z,22.50
2023-04-15T05:05:29.634Z,22.50
2023-04-15T05:06:29.707Z,28.12
2023-04-15T05:07:29.530Z,28.12
2023-04-15T05:08:29.535Z,28.12
2023-04-15T05:09:29.561Z,28.12
2023-04-15T05:10:29.596Z,33.75
2023-04-15T05:11:29.616Z,33.75
2023-04-15T05:12:29.451Z,33.75
2023-04-15T05:13:29.491Z,33.75
2023-04-15T05:14:29.485Z,39.38
2023-04-15T05:15:29.760Z,39.38
2023-04-15T05:16:29.486Z,39.38
2023-04-15T05:17:29.553Z,39.38
2023-04-15T05:18:29.482Z,39.38
2023-04-15T05:19:29.377Z,45.00
2023-04-15T05:20:29.390Z,45.00
2023-04-15T05:21:29.407Z,45.00
2023-04-15T05:22:29.311Z,45.00
2023-04-15T05:23:29.319Z,45.00
2023-04-15T05:24:29.301Z,45.00
2023-04-15T05:25:29.361Z,50.62
2023-04-15T05:26:29.259Z,50.62
2023-04-15T05:27:29.277Z,50.62
2023-04-15T05:28:29.309Z,50.62
2023-04-15T05:29:29.297Z,50.62
2023-04-15T05:30:29.259Z,50.62
2023-04-15T05:31:29.304Z,56.25
2023-04-15T05:32:29.272Z,56.25
2023-04-15T05:33:29.206Z,56.25
2023-04-15T05:34:29.219Z,56.25
2023-04-15T05:35:29.175Z,56.25
2023-04-15T05:36:29.184Z,61.88
2023-04-15T05:37:29.120Z,61.88
2023-04-15T05:38:29.178Z,61.88
2023-04-15T05:39:29.098Z,61.88
2023-04-15T05:40:29.125Z,61.88
2023-04-15T05:41:29.129Z,67.50
2023-04-15T05:42:29.095Z,67.50
2023-04-15T05:43:29.154Z,67.50
2023-04-15T05:44:29.066Z,67.50
2023-04-15T05:45:29.033Z,73.12
2023-04-15T05:46:29.031Z,78.75
2023-04-15T05:47:29.138Z,78.75
2023-04-15T05:48:29.104Z,84.38
2023-04-15T05:49:29.123Z,84.38
2023-04-15T05:50:28.941Z,90.00
2023-04-15T05:51:28.954Z,90.00
2023-04-15T05:52:28.970Z,95.62
2023-04-15T05:53:28.966Z,95.62
2023-04-15T05:54:29.409Z,101.25
2023-04-15T05:55:28.932Z,106.88
2023-04-15T05:56:28.896Z,112.50
2023-04-15T05:57:28.893Z,118.12
2023-04-15T05:58:28.861Z,118.12
2023-04-15T05:59:28.880Z,123.75
2023-04-15T06:00:29.065Z,123.75
2023-04-15T06:01:29.035Z,123.75
2023-04-15T06:02:28.870Z,135.00
2023-04-15T06:03:28.828Z,135.00
2023-04-15T06:04:28.998Z,135.00
2023-04-15T06:05:28.780Z,140.62
2023-04-15T06:06:28.760Z,140.62
2023-04-15T06:07:28.825Z,140.62
2023-04-15T06:08:28.790Z,129.38
2023-04-15T06:09:28.750Z,140.62
2023-04-15T06:10:28.796Z,146.25
2023-04-15T06:11:28.902Z,146.25
2023-04-15T06:12:28.723Z,146.25
2023-04-15T06:13:28.664Z,151.88
2023-04-15T06:14:28.682Z,157.50
2023-04-15T06:15:28.643Z,157.50
2023-04-15T06:16:28.738Z,163.12
2023-04-15T06:17:28.934Z,168.75
2023-04-15T06:18:28.845Z,168.75
2023-04-15T06:19:28.608Z,174.38
2023-04-15T06:20:28.709Z,180.00
2023-04-15T06:21:28.602Z,185.62
2023-04-15T06:22:28.597Z,191.25
2023-04-15T06:23:28.558Z,191.25
2023-04-15T06:24:28.568Z,196.88
2023-04-15T06:25:28.541Z,202.50
2023-04-15T06:26:28.522Z,208.12
2023-04-15T06:27:28.505Z,208.12
2023-04-15T06:28:28.474Z,213.75
2023-04-15T06:29:28.549Z,213.75
2023-04-15T06:30:28.555Z,213.75
2023-04-15T06:31:28.534Z,219.38
2023-04-15T06:32:28.517Z,225.00
2023-04-15T06:33:28.445Z,230.62
2023-04-15T06:34:28.514Z,230.62
2023-04-15T06:35:28.378Z,225.00
2023-04-15T06:36:28.410Z,225.00
2023-04-15T06:37:28.405Z,225.00
2023-04-15T06:38:28.469Z,225.00
2023-04-15T06:39:28.395Z,225.00
2023-04-15T06:40:28.345Z,230.62
2023-04-15T06:41:28.364Z,236.25
2023-04-15T06:42:28.381Z,236.25
2023-04-15T06:43:28.371Z,247.50
2023-04-15T06:44:28.307Z,241.88
2023-04-15T06:45:28.347Z,241.88
2023-04-15T06:46:28.284Z,241.88
2023-04-15T06:47:28.372Z,241.88
2023-04-15T06:48:28.284Z,241.88
2023-04-15T06:50:07.090Z,241.88
2023-04-15T06:50:32.101Z,247.50
2023-04-15T06:51:28.465Z,247.50
2023-04-15T06:52:28.230Z,258.75
2023-04-15T06:53:31.292Z,258.75
2023-04-15T06:54:29.403Z,270.00
2023-04-15T06:55:39.561Z,275.62
2023-04-15T06:56:31.104Z,270.00
2023-04-15T06:57:28.337Z,275.62
2023-04-15T06:58:29.054Z,275.62
2023-04-15T06:59:28.170Z,258.75
2023-04-15T07:00:29.073Z,264.38
2023-04-15T07:01:28.855Z,286.88
2023-04-15T07:02:28.261Z,281.25
2023-04-15T07:03:28.166Z,270.00
2023-04-15T07:04:36.545Z,281.25
2023-04-15T07:05:28.972Z,281.25
2023-04-15T07:06:29.083Z,270.00
2023-04-15T07:07:29.446Z,264.38
2023-04-15T07:08:28.460Z,258.75
2023-04-15T07:09:28.637Z,253.12
2023-04-15T07:10:32.129Z,247.50
2023-04-15T07:11:28.069Z,241.88
2023-04-15T07:12:43.568Z,236.25
2023-04-15T07:13:28.161Z,230.62
2023-04-15T09:01:17.588Z,399.38
2023-04-15T09:02:18.594Z,405.00
2023-04-15T09:03:17.746Z,399.38
2023-04-15T09:04:17.540Z,393.75
2023-04-15T09:05:17.420Z,393.75
2023-04-15T09:06:17.479Z,388.12
2023-04-15T09:07:17.421Z,388.12
2023-04-15T09:08:17.455Z,371.25
2023-04-15T09:09:17.380Z,337.50
2023-04-15T09:10:17.430Z,315.00
2023-04-15T09:11:18.869Z,309.38
2023-04-15T09:12:17.332Z,309.38
2023-04-15T09:13:17.366Z,343.12
2023-04-15T09:14:17.290Z,354.38
2023-04-15T09:15:17.779Z,360.00
2023-04-15T09:16:17.496Z,354.38
2023-04-15T09:17:17.395Z,365.62
2023-04-15T09:18:17.554Z,371.25
2023-04-15T09:19:17.220Z,376.88
2023-04-15T09:20:17.229Z,382.50
2023-04-15T09:21:17.195Z,393.75
2023-04-15T09:22:17.184Z,399.38
2023-04-15T09:23:17.375Z,405.00
2023-04-15T09:24:17.171Z,410.62
2023-04-15T09:25:17.164Z,365.62
2023-04-15T09:26:17.120Z,388.12
2023-04-15T09:27:17.125Z,405.00
2023-04-15T09:28:17.218Z,393.75
2023-04-15T09:29:17.133Z,393.75
2023-04-15T09:30:17.210Z,393.75
2023-04-15T09:31:17.142Z,427.50
2023-04-15T09:32:17.080Z,427.50
2023-04-15T09:33:17.070Z,416.25
2023-04-15T09:34:17.012Z,371.25
2023-04-15T09:35:17.051Z,354.38
2023-04-15T09:36:17.063Z,388.12
2023-04-15T09:37:29.089Z,416.25
2023-04-15T09:38:17.966Z,382.50
2023-04-15T09:39:16.976Z,388.12
2023-04-15T09:40:17.007Z,371.25
2023-04-15T09:41:16.972Z,371.25
2023-04-15T09:42:16.925Z,388.12
2023-04-15T09:43:16.908Z,388.12
2023-04-15T09:44:16.925Z,461.25
2023-04-15T09:45:16.888Z,416.25
2023-04-15T09:46:16.945Z,410.62
2023-04-15T09:47:16.832Z,405.00
2023-04-15T09:48:16.845Z,382.50
2023-04-15T09:49:16.921Z,365.62
2023-04-15T09:50:16.895Z,365.62
2023-04-15T09:51:16.828Z,405.00
2023-04-15T09:52:16.796Z,405.00
2023-04-15T09:53:16.747Z,455.62
2023-04-15T09:54:16.912Z,466.88
2023-04-15T09:55:16.733Z,433.12
2023-04-15T09:56:16.709Z,421.88
2023-04-15T09:57:16.716Z,466.88
2023-04-15T09:58:16.723Z,506.25
2023-04-15T09:59:16.698Z,478.12
2023-04-15T10:00:16.732Z,511.88
2023-04-15T10:01:16.727Z,523.12
2023-04-15T10:02:16.717Z,495.00
2023-04-15T10:03:16.743Z,388.12
2023-04-15T10:04:16.745Z,354.38
2023-04-15T10:05:16.644Z,298.12
2023-04-15T10:06:16.604Z,253.12
2023-04-15T10:07:16.594Z,247.50
2023-04-15T10:08:16.598Z,241.88
2023-04-15T10:09:16.559Z,236.25
2023-04-15T10:10:16.564Z,253.12
2023-04-15T10:11:16.857Z,275.62
2023-04-15T10:12:16.544Z,286.88
2023-04-15T10:13:16.567Z,303.75
2023-04-15T10:14:16.536Z,337.50
2023-04-15T10:15:16.528Z,360.00
2023-04-15T10:16:16.521Z,388.12
2023-04-15T10:17:16.480Z,399.38
2023-04-15T10:18:16.449Z,393.75
2023-04-15T10:19:16.491Z,382.50
2023-04-15T10:20:16.455Z,354.38
2023-04-15T10:21:16.453Z,337.50
2023-04-15T10:22:16.375Z,326.25
2023-04-15T10:23:16.402Z,320.62
2023-04-15T10:24:16.351Z,320.62
2023-04-15T10:25:16.400Z,331.88
2023-04-15T10:26:16.322Z,326.25
2023-04-15T10:27:16.377Z,309.38
2023-04-15T10:28:17.612Z,298.12
2023-04-15T10:29:16.267Z,303.75
2023-04-15T10:30:16.285Z,326.25
2023-04-15T10:31:16.271Z,343.12
2023-04-15T10:32:16.324Z,348.75
2023-04-15T10:33:16.463Z,320.62
2023-04-15T10:34:16.239Z,258.75
2023-04-15T10:35:16.205Z,208.12
2023-04-15T10:36:16.210Z,174.38
2023-04-15T10:37:16.184Z,151.88
2023-04-15T10:38:16.226Z,151.88
2023-04-15T10:39:16.876Z,151.88
2023-04-15T10:40:16.140Z,163.12
2023-04-15T10:41:17.763Z,185.62
2023-04-15T10:42:16.144Z,202.50
2023-04-15T10:43:16.093Z,225.00
2023-04-15T10:44:16.131Z,247.50
2023-04-15T10:45:16.091Z,270.00
2023-04-15T10:46:16.139Z,264.38
2023-04-15T10:47:16.015Z,247.50
2023-04-15T10:48:16.121Z,247.50
2023-04-15T10:49:16.046Z,275.62
2023-04-15T10:50:16.019Z,354.38
2023-04-15T10:51:16.005Z,365.62
2023-04-15T10:52:15.970Z,348.75
2023-04-15T10:53:15.952Z,309.38
2023-04-15T10:54:17.167Z,264.38
2023-04-15T10:55:16.591Z,225.00
2023-04-15T10:56:15.952Z,202.50
2023-04-15T10:57:15.944Z,174.38
2023-04-15T10:58:15.875Z,163.12
2023-04-15T10:59:15.915Z,168.75
2023-04-15T11:00:15.858Z,185.62
2023-04-15T11:01:15.885Z,230.62
2023-04-15T11:02:15.948Z,281.25
2023-04-15T11:03:16.000Z,343.12
2023-04-15T11:04:15.876Z,371.25
2023-04-15T11:05:15.791Z,382.50
2023-04-15T11:06:15.824Z,393.75
2023-04-15T11:07:15.764Z,388.12
2023-04-15T11:08:15.985Z,376.88
2023-04-15T11:09:15.742Z,382.50
2023-04-15T11:10:15.811Z,376.88
2023-04-15T11:11:15.719Z,354.38
2023-04-15T11:12:15.756Z,348.75
2023-04-15T11:13:15.732Z,354.38
2023-04-15T11:14:15.723Z,348.75
2023-04-15T11:15:15.642Z,393.75
2023-04-15T11:16:15.716Z,450.00
2023-04-15T11:17:15.665Z,478.12
2023-04-15T11:18:15.611Z,483.75
2023-04-15T11:19:15.604Z,489.38
2023-04-15T11:20:15.622Z,489.38
2023-04-15T11:21:15.604Z,489.38
2023-04-15T11:22:15.695Z,483.75
2023-04-15T11:23:15.960Z,472.50
2023-04-15T11:24:15.643Z,450.00
2023-04-15T11:25:15.577Z,405.00
2023-04-15T11:26:15.503Z,371.25
2023-04-15T11:27:15.534Z,343.12
2023-04-15T11:28:15.662Z,303.75
2023-04-15T11:29:15.476Z,286.88
2023-04-15T11:30:15.622Z,241.88
2023-04-15T11:31:15.623Z,241.88
2023-04-15T11:32:15.516Z,281.25
2023-04-15T11:33:15.870Z,343.12
2023-04-15T11:34:15.536Z,360.00
2023-04-15T11:35:15.400Z,388.12
2023-04-15T11:36:15.770Z,410.62
2023-04-15T11:37:15.366Z,421.88
2023-04-15T11:38:15.399Z,405.00
2023-04-15T11:39:15.423Z,393.75
2023-04-15T11:40:15.335Z,365.62
2023-04-15T11:41:15.526Z,320.62
2023-04-15T11:42:15.350Z,298.12
2023-04-15T11:43:15.367Z,315.00
2023-04-15T11:44:15.543Z,320.62
2023-04-15T11:45:15.287Z,315.00
2023-04-15T11:46:15.427Z,303.75
2023-04-15T11:47:15.221Z,253.12
2023-04-15T11:48:15.228Z,191.25
2023-04-15T11:49:15.290Z,157.50
2023-04-15T11:50:15.310Z,157.50
2023-04-15T11:51:15.272Z,157.50
2023-04-15T11:52:15.194Z,151.88
2023-04-15T11:53:15.138Z,146.25
2023-04-15T11:54:15.219Z,151.88
2023-04-15T11:55:15.598Z,163.12
2023-04-15T11:56:15.113Z,168.75
2023-04-15T11:57:15.108Z,180.00
2023-04-15T11:58:16.371Z,174.38
2023-04-15T11:59:15.084Z,163.12
2023-04-15T12:00:15.080Z,151.88
2023-04-15T12:01:15.050Z,140.62
2023-04-15T12:02:15.138Z,135.00
2023-04-15T12:03:15.208Z,140.62
2023-04-15T12:04:15.230Z,140.62
2023-04-15T12:05:15.043Z,151.88
2023-04-15T12:06:15.052Z,168.75
2023-04-15T12:07:14.990Z,191.25
2023-04-15T12:08:14.954Z,208.12
2023-04-15T12:09:15.030Z,219.38
2023-04-15T12:10:15.017Z,225.00
2023-04-15T12:11:14.881Z,241.88
2023-04-15T12:12:14.862Z,247.50
2023-04-15T12:13:14.887Z,253.12
2023-04-15T12:14:14.845Z,264.38
2023-04-15T12:15:14.833Z,258.75
2023-04-15T12:16:14.897Z,253.12
2023-04-15T12:17:14.846Z,253.12
2023-04-15T12:18:14.847Z,236.25
2023-04-15T12:19:14.805Z,219.38
2023-04-15T12:20:14.855Z,208.12
2023-04-15T12:21:14.765Z,208.12
2023-04-15T12:22:14.720Z,208.12
2023-04-15T12:23:14.807Z,208.12
2023-04-15T12:24:14.794Z,213.75
2023-04-15T12:25:14.671Z,230.62
2023-04-15T12:26:14.668Z,264.38
2023-04-15T12:27:14.727Z,275.62
2023-04-15T12:28:14.666Z,270.00
2023-04-15T12:29:14.654Z,264.38
2023-04-15T12:30:14.643Z,270.00
2023-04-15T12:31:14.667Z,247.50
2023-04-15T12:32:14.791Z,253.12
2023-04-15T12:33:14.560Z,247.50
2023-04-15T12:34:14.565Z,241.88
2023-04-15T12:35:14.661Z,236.25
2023-04-15T12:36:14.527Z,219.38
2023-04-15T12:37:14.565Z,208.12
2023-04-15T12:38:15.165Z,196.88
2023-04-15T12:39:14.481Z,196.88
2023-04-15T12:40:14.474Z,202.50
2023-04-15T12:41:14.492Z,219.38
2023-04-15T12:42:14.455Z,253.12
2023-04-15T12:43:14.487Z,270.00
2023-04-15T12:44:14.513Z,286.88
2023-04-15T12:45:14.468Z,275.62
2023-04-15T12:46:14.420Z,258.75
2023-04-15T12:47:14.375Z,264.38
2023-04-15T12:48:14.392Z,281.25
2023-04-15T12:49:14.342Z,292.50
2023-04-15T12:50:14.327Z,292.50
2023-04-15T12:51:14.400Z,286.88
2023-04-15T12:52:14.311Z,292.50
2023-04-15T12:53:14.346Z,281.25
2023-04-15T12:54:14.468Z,258.75
2023-04-15T12:55:14.279Z,230.62
2023-04-15T12:56:14.368Z,208.12
2023-04-15T12:57:14.236Z,185.62
2023-04-15T12:58:14.245Z,163.12
2023-04-15T12:59:15.150Z,151.88
2023-04-15T13:00:14.332Z,135.00
2023-04-15T13:01:14.216Z,123.75
2023-04-15T13:02:14.307Z,118.12
2023-04-15T13:03:14.272Z,112.50
2023-04-15T13:04:14.991Z,118.12
2023-04-15T13:05:15.357Z,118.12
2023-04-15T13:06:18.250Z,129.38
2023-04-15T13:07:14.216Z,129.38
2023-04-15T13:08:14.090Z,135.00
2023-04-15T13:09:14.078Z,135.00
2023-04-15T13:10:14.163Z,140.62
2023-04-15T13:11:14.054Z,157.50
2023-04-15T13:12:14.035Z,163.12
2023-04-15T13:13:14.074Z,174.38
2023-04-15T13:14:13.997Z,202.50
2023-04-15T13:15:13.961Z,230.62
2023-04-15T13:16:14.038Z,236.25
2023-04-15T13:17:13.975Z,219.38
2023-04-15T13:18:13.943Z,208.12
2023-04-15T13:19:13.928Z,202.50
2023-04-15T13:20:13.936Z,185.62
2023-04-15T13:21:13.893Z,174.38
2023-04-15T13:22:13.930Z,174.38
2023-04-15T13:23:13.920Z,180.00
2023-04-15T13:24:13.928Z,163.12
2023-04-15T13:25:13.868Z,151.88
2023-04-15T13:26:13.821Z,140.62
2023-04-15T13:27:13.843Z,129.38
2023-04-15T13:28:13.787Z,123.75
2023-04-15T13:29:13.905Z,123.75
2023-04-15T13:30:13.795Z,123.75
2023-04-15T13:31:13.760Z,118.12
2023-04-15T13:32:13.724Z,118.12
2023-04-15T13:33:13.728Z,118.12
2023-04-15T13:34:13.736Z,112.50
2023-04-15T13:35:13.726Z,106.88
2023-04-15T13:36:13.708Z,101.25
2023-04-15T13:37:13.692Z,112.50
2023-04-15T13:38:13.672Z,129.38
2023-04-15T13:39:13.637Z,146.25
2023-04-15T13:40:13.620Z,163.12
2023-04-15T13:41:13.616Z,180.00
2023-04-15T13:42:13.616Z,180.00
2023-04-15T13:43:13.617Z,185.62
2023-04-15T13:44:13.648Z,191.25
2023-04-15T13:45:13.588Z,213.75
2023-04-15T13:46:13.660Z,230.62
2023-04-15T13:47:13.604Z,241.88
2023-04-15T13:48:13.496Z,213.75
2023-04-15T13:49:16.102Z,219.38
2023-04-15T13:50:22.335Z,225.00
2023-04-15T13:51:13.512Z,208.12
2023-04-15T13:52:13.588Z,168.75
2023-04-15T13:53:13.457Z,140.62
2023-04-15T13:54:13.489Z,118.12
2023-04-15T13:55:19.884Z,101.25
2023-04-15T13:56:14.433Z,95.62
2023-04-15T13:57:13.459Z,90.00
2023-04-15T13:58:13.379Z,90.00
2023-04-15T13:59:13.441Z,90.00
2023-04-15T14:00:13.378Z,95.62
2023-04-15T14:01:13.397Z,95.62
2023-04-15T14:02:13.489Z,106.88
2023-04-15T14:03:13.612Z,118.12
2023-04-15T14:04:13.388Z,123.75
2023-04-15T14:05:13.378Z,140.62
2023-04-15T14:06:13.260Z,157.50
2023-04-15T14:07:13.281Z,180.00
2023-04-15T14:08:13.353Z,191.25
2023-04-15T14:09:14.097Z,196.88
2023-04-15T14:10:13.228Z,180.00
2023-04-15T14:11:13.230Z,168.75
2023-04-15T14:12:21.007Z,157.50
2023-04-15T14:13:20.872Z,140.62
2023-04-15T14:14:15.230Z,135.00
2023-04-15T14:15:13.207Z,129.38
2023-04-15T14:16:13.207Z,135.00
2023-04-15T14:17:13.119Z,146.25
2023-04-15T14:18:13.145Z,157.50
2023-04-15T14:19:13.357Z,168.75
2023-04-15T14:20:14.498Z,168.75
2023-04-15T14:21:13.057Z,168.75
2023-04-15T14:22:13.497Z,174.38
2023-04-15T14:23:13.077Z,168.75
2023-04-15T14:24:13.052Z,163.12
2023-04-15T14:25:23.130Z,163.12
2023-04-15T14:26:14.224Z,163.12
2023-04-15T14:27:13.373Z,174.38
2023-04-15T14:28:13.032Z,196.88
2023-04-15T14:29:12.996Z,208.12
2023-04-15T14:30:12.935Z,219.38
2023-04-15T14:31:13.041Z,230.62
2023-04-15T14:32:13.080Z,213.75
2023-04-15T14:33:12.868Z,202.50
2023-04-15T14:34:12.890Z,191.25
2023-04-15T14:35:12.848Z,168.75